createdAt,value
2023-03-06T00:00:38.560Z,7.70
2023-03-06T00:03:18.764Z,9.30
2023-03-06T00:05:48.003Z,9.10
2023-03-06T00:08:16.096Z,11.30
2023-03-06T00:10:44.593Z,12.40
2023-03-06T00:13:14.833Z,15.30
2023-03-06T00:15:43.227Z,14.20
2023-03-06T00:18:11.675Z,9.70
2023-03-06T00:20:42.259Z,14.80
2023-03-06T00:23:11.617Z,12.80
2023-03-06T00:25:44.087Z,11.90
2023-03-06T00:28:14.882Z,14.40
2023-03-06T00:30:44.011Z,11.40
2023-03-06T00:33:12.263Z,20.00
2023-03-06T00:35:41.411Z,22.40
2023-03-06T00:38:12.145Z,19.30
2023-03-06T00:40:40.363Z,12.10
2023-03-06T00:43:08.325Z,13.80
2023-03-06T00:45:36.747Z,11.90
2023-03-06T00:48:05.496Z,15.60
2023-03-06T00:50:35.329Z,14.80
2023-03-06T00:53:03.698Z,20.30
2023-03-06T00:55:33.696Z,11.40
2023-03-06T00:58:01.869Z,9.30
2023-03-06T01:00:29.889Z,13.20
2023-03-06T01:02:57.867Z,12.10
2023-03-06T01:05:26.643Z,10.90
2023-03-06T01:10:23.168Z,11.30
2023-03-06T01:12:51.146Z,9.00
2023-03-06T01:15:20.700Z,11.10
2023-03-06T01:17:53.543Z,14.30
2023-03-06T01:20:22.202Z,15.40
2023-03-06T01:25:18.489Z,17.80
2023-03-06T01:27:46.576Z,14.60
2023-03-06T01:30:15.077Z,15.80
2023-03-06T01:32:43.306Z,13.30
2023-03-06T01:35:12.820Z,11.00
2023-03-06T01:37:41.724Z,9.20
2023-03-06T01:40:12.577Z,8.80
2023-03-06T01:42:42.395Z,10.50
2023-03-06T01:45:13.565Z,9.70
2023-03-06T01:47:41.577Z,9.10
2023-03-06T01:50:13.023Z,12.00
2023-03-06T01:52:48.255Z,10.80
2023-03-06T01:55:20.668Z,15.90
2023-03-06T01:57:53.317Z,13.70
2023-03-06T02:00:27.057Z,12.30
2023-03-06T02:03:04.131Z,10.70
2023-03-06T02:05:33.488Z,13.80
2023-03-06T02:08:04.170Z,13.20
2023-03-06T02:10:32.523Z,10.10
2023-03-06T02:13:01.343Z,16.00
2023-03-06T02:18:00.071Z,10.20
2023-03-06T02:20:33.951Z,9.50
2023-03-06T02:23:04.729Z,16.20
2023-03-06T02:25:41.086Z,12.50
2023-03-06T02:28:13.359Z,12.40
2023-03-06T02:30:43.290Z,12.80
2023-03-06T02:33:19.023Z,14.70
2023-03-06T02:35:52.194Z,10.70
2023-03-06T02:38:25.034Z,8.00
2023-03-06T02:40:53.686Z,10.80
2023-03-06T02:43:26.183Z,10.70
2023-03-06T02:45:54.833Z,8.30
2023-03-06T02:48:23.049Z,6.10
2023-03-06T02:50:51.217Z,10.70
2023-03-06T02:53:20.446Z,11.80
2023-03-06T02:55:49.672Z,12.50
2023-03-06T02:58:19.967Z,12.90
2023-03-06T03:00:50.278Z,12.60
2023-03-06T03:03:18.561Z,11.20
2023-03-06T03:05:47.203Z,9.80
2023-03-06T03:08:24.648Z,8.10
2023-03-06T03:10:56.438Z,16.40
2023-03-06T03:13:26.137Z,11.30
2023-03-06T03:16:14.071Z,9.00
2023-03-06T03:18:48.133Z,10.90
2023-03-06T03:21:18.459Z,12.70
2023-03-06T03:23:48.204Z,12.50
2023-03-06T03:26:19.425Z,13.10
2023-03-06T03:28:59.243Z,7.20
2023-03-06T03:31:27.870Z,21.50
2023-03-06T03:33:56.416Z,24.90
2023-03-06T03:36:26.232Z,13.00
2023-03-06T03:38:55.743Z,21.80
2023-03-06T03:46:21.932Z,18.30
2023-03-06T03:48:50.815Z,25.30
2023-03-06T03:51:19.256Z,18.10
2023-03-06T03:53:49.805Z,16.90
2023-03-06T03:56:20.577Z,16.50
2023-03-06T03:58:55.852Z,23.80
2023-03-06T04:01:25.535Z,13.10
2023-03-06T04:03:53.919Z,11.60
2023-03-06T04:06:22.207Z,21.10
2023-03-06T04:08:50.290Z,20.50
2023-03-06T04:11:18.340Z,25.50
2023-03-06T04:13:46.550Z,19.70
2023-03-06T04:16:15.107Z,25.70
2023-03-06T04:18:43.224Z,24.00
2023-03-06T04:21:11.271Z,23.70
2023-03-06T04:23:39.965Z,27.70
2023-03-06T04:26:08.145Z,20.90
2023-03-06T04:28:36.222Z,18.00
2023-03-06T04:31:04.855Z,14.50
2023-03-06T04:38:31.805Z,14.60
2023-03-06T04:40:59.938Z,21.40
2023-03-06T04:43:28.094Z,21.20
2023-03-06T04:45:58.412Z,27.90
2023-03-06T04:48:26.429Z,23.40
2023-03-06T04:50:54.653Z,28.60
2023-03-06T04:53:22.721Z,26.30
2023-03-06T04:55:50.831Z,28.50
2023-03-06T04:58:19.202Z,24.10
2023-03-06T05:00:47.434Z,28.10
2023-03-06T05:03:15.634Z,18.40
2023-03-06T05:05:43.774Z,15.80
2023-03-06T05:08:16.225Z,12.70
2023-03-06T05:10:45.805Z,27.00
2023-03-06T05:13:14.076Z,39.60
2023-03-06T05:15:42.294Z,23.00
2023-03-06T05:18:10.445Z,26.80
2023-03-06T05:20:38.427Z,49.50
2023-03-06T05:23:06.637Z,50.10
2023-03-06T05:25:34.773Z,29.70
2023-03-06T05:28:03.008Z,34.10
2023-03-06T05:30:31.357Z,54.90
2023-03-06T05:33:00.877Z,31.10
2023-03-06T05:35:29.263Z,34.60
2023-03-06T05:37:57.702Z,31.80
2023-03-06T05:40:26.492Z,21.10
2023-03-06T05:42:54.774Z,18.40
2023-03-06T05:45:22.991Z,17.70
2023-03-06T05:47:50.999Z,20.60
2023-03-06T05:50:19.406Z,15.90
2023-03-06T05:52:47.434Z,24.60
2023-03-06T05:55:16.589Z,16.20
2023-03-06T05:57:44.853Z,22.70
2023-03-06T06:00:14.919Z,40.50
2023-03-06T06:02:46.164Z,35.70
2023-03-06T06:05:14.593Z,31.70
2023-03-06T06:07:42.871Z,23.00
2023-03-06T06:10:12.106Z,33.80
2023-03-06T06:12:40.351Z,57.50
2023-03-06T06:15:09.394Z,66.30
2023-03-06T06:17:37.769Z,70.00
2023-03-06T06:20:06.817Z,67.30
2023-03-06T06:22:37.976Z,51.40
2023-03-06T06:25:07.085Z,97.20
2023-03-06T06:27:35.183Z,98.10
2023-03-06T06:30:04.811Z,102.80
2023-03-06T06:32:33.230Z,75.70
2023-03-06T06:35:01.406Z,78.50
2023-03-06T06:37:30.929Z,54.10
2023-03-06T06:39:59.344Z,51.80
2023-03-06T06:42:35.215Z,35.70
2023-03-06T06:45:05.818Z,44.30
2023-03-06T06:47:34.543Z,43.20
2023-03-06T06:50:02.756Z,44.20
2023-03-06T06:52:30.843Z,37.60
2023-03-06T06:54:59.175Z,33.60
2023-03-06T06:57:27.219Z,31.10
2023-03-06T06:59:55.464Z,43.20
2023-03-06T07:02:23.799Z,47.20
2023-03-06T07:05:03.850Z,43.40
2023-03-06T07:07:38.106Z,36.30
2023-03-06T07:10:14.299Z,37.20
2023-03-06T07:12:43.238Z,40.90
2023-03-06T07:17:40.875Z,52.60
2023-03-06T07:20:10.735Z,64.10
2023-03-06T07:22:50.440Z,33.90
2023-03-06T07:25:20.455Z,31.50
2023-03-06T07:27:53.914Z,20.10
2023-03-06T07:30:23.757Z,33.00
2023-03-06T07:32:54.345Z,38.50
2023-03-06T07:35:23.024Z,29.10
2023-03-06T07:37:51.807Z,23.40
2023-03-06T07:42:49.072Z,33.40
2023-03-06T07:45:20.018Z,34.40
2023-03-06T07:47:50.753Z,27.90
2023-03-06T07:50:20.825Z,26.10
2023-03-06T07:52:50.268Z,31.70
2023-03-06T07:55:18.648Z,24.70
2023-03-06T07:57:49.446Z,20.80
2023-03-06T08:00:18.819Z,24.50
2023-03-06T08:02:47.799Z,21.80
2023-03-06T08:07:45.622Z,35.70
2023-03-06T08:12:43.671Z,14.40
2023-03-06T08:15:12.758Z,14.90
2023-03-06T08:17:41.134Z,6.60
2023-03-06T08:20:10.538Z,16.40
2023-03-06T08:22:39.232Z,15.40
2023-03-06T08:25:08.818Z,14.80
2023-03-06T08:27:37.645Z,8.30
2023-03-06T08:30:08.130Z,28.40
2023-03-06T08:32:37.863Z,19.80
2023-03-06T08:35:07.028Z,12.00
2023-03-06T08:37:35.561Z,10.50
2023-03-06T08:40:04.916Z,20.60
2023-03-06T08:42:33.206Z,7.20
2023-03-06T08:45:01.504Z,10.30
2023-03-06T08:47:30.504Z,17.50
2023-03-06T08:50:00.587Z,17.30
2023-03-06T08:52:29.259Z,16.10
2023-03-06T08:55:03.750Z,11.20
2023-03-06T08:57:32.250Z,11.20
2023-03-06T09:00:00.508Z,15.50
2023-03-06T09:02:29.108Z,15.60
2023-03-06T09:04:59.510Z,13.90
2023-03-06T09:07:28.246Z,23.60
2023-03-06T09:09:59.705Z,43.00
2023-03-06T09:12:29.276Z,8.40
2023-03-06T09:14:58.894Z,11.70
2023-03-06T09:17:27.203Z,6.80
2023-03-06T09:19:55.495Z,8.60
2023-03-06T09:22:23.548Z,8.20
2023-03-06T09:24:52.230Z,7.40
2023-03-06T09:27:20.405Z,14.20
2023-03-06T09:29:48.603Z,7.60
2023-03-06T09:32:16.899Z,15.50
2023-03-06T09:34:45.206Z,6.70
2023-03-06T09:37:14.844Z,8.70
2023-03-06T09:39:43.985Z,10.80
2023-03-06T09:42:18.428Z,6.40
2023-03-06T09:44:59.417Z,9.40
2023-03-06T09:47:39.592Z,10.40
2023-03-06T09:50:17.447Z,9.50
2023-03-06T09:52:52.844Z,12.70
2023-03-06T09:55:28.220Z,15.40
2023-03-06T09:58:07.177Z,12.40
2023-03-06T10:00:54.286Z,10.30
2023-03-06T10:03:30.453Z,9.50
2023-03-06T10:06:19.849Z,9.80
2023-03-06T10:08:58.174Z,12.90
2023-03-06T10:11:44.895Z,10.40
2023-03-06T10:14:34.974Z,12.30
2023-03-06T10:17:05.412Z,9.80
2023-03-06T10:19:40.097Z,7.10
2023-03-06T10:22:14.131Z,9.20
2023-03-06T10:24:48.289Z,5.40
2023-03-06T10:27:28.707Z,8.50
2023-03-06T10:30:18.461Z,12.80
2023-03-06T10:32:56.274Z,28.00
2023-03-06T10:35:32.642Z,81.80
2023-03-06T10:38:21.059Z,5.80
2023-03-06T10:40:54.584Z,10.60
2023-03-06T10:43:23.820Z,69.30
2023-03-06T10:45:53.769Z,8.20
2023-03-06T10:48:28.257Z,12.30
2023-03-06T10:51:22.528Z,5.20
2023-03-06T10:54:02.957Z,3.90
2023-03-06T10:56:38.741Z,5.90
2023-03-06T10:59:25.448Z,7.90
2023-03-06T11:02:13.862Z,8.80
2023-03-06T11:04:47.172Z,9.60
2023-03-06T11:07:15.693Z,15.10
2023-03-06T11:10:05.410Z,15.90
2023-03-06T11:12:39.394Z,18.00
2023-03-06T11:15:10.208Z,16.00
2023-03-06T11:17:50.993Z,7.00
2023-03-06T11:20:21.328Z,12.60
2023-03-06T11:23:16.910Z,9.80
2023-03-06T11:25:50.615Z,6.30
2023-03-06T11:28:27.739Z,9.30
2023-03-06T11:31:20.210Z,9.30
2023-03-06T11:34:05.135Z,9.60
2023-03-06T11:36:39.424Z,7.10
2023-03-06T11:39:19.681Z,9.80
2023-03-06T11:42:04.490Z,7.10
2023-03-06T11:44:43.634Z,11.90
2023-03-06T11:47:17.489Z,11.60
2023-03-06T11:50:06.214Z,9.30
2023-03-06T11:55:48.601Z,6.70
2023-03-06T11:58:25.968Z,9.10
2023-03-06T12:01:06.734Z,10.00
2023-03-06T12:03:52.928Z,7.70
2023-03-06T12:06:39.083Z,11.60
2023-03-06T12:09:13.559Z,10.20
2023-03-06T12:12:00.757Z,8.50
2023-03-06T12:14:51.892Z,10.00
2023-03-06T12:17:26.515Z,10.30
2023-03-06T12:20:42.916Z,10.20
2023-03-06T12:23:40.520Z,8.00
2023-03-06T12:26:30.910Z,8.40
2023-03-06T12:29:11.029Z,11.80
2023-03-06T12:32:06.559Z,13.30
2023-03-06T12:35:07.054Z,18.90
2023-03-06T12:38:14.274Z,14.20
2023-03-06T12:41:05.802Z,11.00
2023-03-06T12:43:38.402Z,14.60
2023-03-06T12:46:22.261Z,20.50
2023-03-06T12:49:11.189Z,21.90
2023-03-06T12:51:41.915Z,10.90
2023-03-06T12:54:11.334Z,13.00
2023-03-06T12:56:40.611Z,13.40
2023-03-06T13:02:18.059Z,12.40
2023-03-06T13:05:09.645Z,15.00
2023-03-06T13:07:56.820Z,14.00
2023-03-06T13:10:36.169Z,9.80
2023-03-06T13:13:23.065Z,17.10
2023-03-06T13:16:11.198Z,12.40
2023-03-06T13:18:42.276Z,10.10
2023-03-06T13:21:42.447Z,12.80
2023-03-06T13:24:24.011Z,13.50
2023-03-06T13:26:57.214Z,16.60
2023-03-06T13:29:37.726Z,11.90
2023-03-06T13:32:13.694Z,13.70
2023-03-06T13:34:47.018Z,23.40
2023-03-06T13:37:23.234Z,12.90
2023-03-06T13:40:00.496Z,13.40
2023-03-06T13:42:36.641Z,22.50
2023-03-06T13:45:17.101Z,14.80
2023-03-06T13:48:15.515Z,15.00
2023-03-06T13:50:40.577Z,20.20
2023-03-06T13:53:19.752Z,14.80
2023-03-06T13:56:27.307Z,13.40
2023-03-06T13:59:04.696Z,14.10
2023-03-06T14:01:44.431Z,20.30
2023-03-06T14:04:26.306Z,15.00
2023-03-06T14:07:11.707Z,18.50
2023-03-06T14:09:45.710Z,12.00
2023-03-06T14:12:36.206Z,18.30
2023-03-06T14:15:17.912Z,12.10
2023-03-06T14:18:02.662Z,14.90
2023-03-06T14:20:39.899Z,13.80
2023-03-06T14:23:32.511Z,14.60
2023-03-06T14:26:23.952Z,16.60
2023-03-06T14:28:52.009Z,18.30
2023-03-06T14:31:23.181Z,11.80
2023-03-06T14:34:03.733Z,14.00
2023-03-06T14:36:44.284Z,17.60
2023-03-06T14:39:16.808Z,15.50
2023-03-06T14:41:44.892Z,13.00
2023-03-06T14:44:19.628Z,12.10
2023-03-06T14:46:56.464Z,18.20
2023-03-06T14:49:26.432Z,17.40
2023-03-06T14:52:00.678Z,22.30
2023-03-06T14:54:30.322Z,27.80
2023-03-06T14:57:04.040Z,28.40
2023-03-06T14:59:41.302Z,30.00
2023-03-06T15:02:16.534Z,22.50
2023-03-06T15:04:49.148Z,20.60
2023-03-06T15:07:25.827Z,22.30
2023-03-06T15:09:55.354Z,19.00
2023-03-06T15:12:23.472Z,12.40
2023-03-06T15:15:26.164Z,20.50
2023-03-06T15:17:54.555Z,26.10
2023-03-06T15:20:53.649Z,23.40
2023-03-06T15:23:34.243Z,19.60
2023-03-06T15:26:33.680Z,18.40
2023-03-06T15:29:11.034Z,38.20
2023-03-06T15:31:42.199Z,37.60
2023-03-06T15:34:10.338Z,36.00
2023-03-06T15:36:41.586Z,28.10
2023-03-06T15:39:40.215Z,33.30
2023-03-06T15:42:23.608Z,32.00
2023-03-06T15:44:57.913Z,28.20
2023-03-06T15:47:26.334Z,28.00
2023-03-06T15:49:55.122Z,27.70
2023-03-06T15:54:51.758Z,22.40
2023-03-06T15:57:24.071Z,33.10
2023-03-06T15:59:52.650Z,34.70
2023-03-06T16:02:22.326Z,39.10
2023-03-06T16:04:51.378Z,38.00
2023-03-06T16:07:20.796Z,37.80
2023-03-06T16:09:49.176Z,46.20
2023-03-06T16:12:21.831Z,42.70
2023-03-06T16:14:50.050Z,32.30
2023-03-06T16:17:18.184Z,27.60
2023-03-06T16:19:46.354Z,23.20
2023-03-06T16:22:14.710Z,50.10
2023-03-06T16:24:43.529Z,35.80
2023-03-06T16:27:18.995Z,26.70
2023-03-06T16:29:47.125Z,25.30
2023-03-06T16:32:15.356Z,27.80
2023-03-06T16:34:43.504Z,32.30
2023-03-06T16:37:13.388Z,30.30
2023-03-06T16:39:41.450Z,19.00
2023-03-06T16:42:10.090Z,28.30
2023-03-06T16:44:38.622Z,31.00
2023-03-06T16:47:11.995Z,27.50
2023-03-06T16:49:40.163Z,25.40
2023-03-06T16:52:11.000Z,22.10
2023-03-06T16:54:39.157Z,31.50
2023-03-06T16:57:07.183Z,26.20
2023-03-06T16:59:35.309Z,28.30
2023-03-06T17:02:03.868Z,25.50
2023-03-06T17:04:31.933Z,38.00
2023-03-06T17:07:00.036Z,45.70
2023-03-06T17:09:28.328Z,45.20
2023-03-06T17:11:56.457Z,38.30
2023-03-06T17:14:24.491Z,43.50
2023-03-06T17:16:53.790Z,47.90
2023-03-06T17:19:22.105Z,63.50
2023-03-06T17:21:50.188Z,38.40
2023-03-06T17:24:18.291Z,33.30
2023-03-06T17:26:47.015Z,40.80
2023-03-06T17:29:15.516Z,33.50
2023-03-06T17:31:43.787Z,39.90
2023-03-06T17:34:12.174Z,35.90
2023-03-06T17:36:40.442Z,33.80
2023-03-06T17:39:08.473Z,34.00
2023-03-06T17:41:36.476Z,36.60
2023-03-06T17:44:04.978Z,24.40
2023-03-06T17:46:34.652Z,46.50
2023-03-06T17:49:02.916Z,88.50
2023-03-06T17:51:30.942Z,54.20
2023-03-06T17:53:59.162Z,26.50
2023-03-06T17:56:27.792Z,17.70
2023-03-06T17:58:57.031Z,17.20
2023-03-06T18:01:30.358Z,21.20
2023-03-06T18:03:58.699Z,22.40
2023-03-06T18:06:30.197Z,26.40
2023-03-06T18:08:58.862Z,29.40
2023-03-06T18:11:27.834Z,24.10
2023-03-06T18:13:56.295Z,27.50
2023-03-06T18:16:26.132Z,24.10
2023-03-06T18:18:56.753Z,20.50
2023-03-06T18:21:25.692Z,25.00
2023-03-06T18:23:53.954Z,11.60
2023-03-06T18:26:27.891Z,22.80
2023-03-06T18:29:03.719Z,20.30
2023-03-06T18:31:35.075Z,16.40
2023-03-06T18:34:06.774Z,18.90
2023-03-06T18:36:35.949Z,25.10
2023-03-06T18:39:08.735Z,21.50
2023-03-06T18:41:37.692Z,18.00
2023-03-06T18:44:06.097Z,20.80
2023-03-06T18:46:36.936Z,25.20
2023-03-06T18:49:06.361Z,16.40
2023-03-06T18:51:34.907Z,20.00
2023-03-06T18:54:05.009Z,15.20
2023-03-06T18:56:34.155Z,19.60
2023-03-06T18:59:05.101Z,15.90
2023-03-06T19:01:33.839Z,14.60
2023-03-06T19:04:03.949Z,15.10
2023-03-06T19:06:32.608Z,12.50
2023-03-06T19:09:02.296Z,14.10
2023-03-06T19:11:32.263Z,21.80
2023-03-06T19:14:00.806Z,16.90
2023-03-06T19:16:30.616Z,18.90
2023-03-06T19:18:59.289Z,12.70
2023-03-06T19:21:28.644Z,11.30
2023-03-06T19:23:57.422Z,13.30
2023-03-06T19:26:27.153Z,14.00
2023-03-06T19:28:55.476Z,12.40
2023-03-06T19:31:26.596Z,13.90
2023-03-06T19:33:56.946Z,20.40
2023-03-06T19:36:28.697Z,13.20
2023-03-06T19:38:58.798Z,15.60
2023-03-06T19:41:27.508Z,18.60
2023-03-06T19:46:26.924Z,18.90
2023-03-06T19:48:57.185Z,18.30
2023-03-06T19:51:26.369Z,16.20
2023-03-06T19:53:56.014Z,9.70
2023-03-06T19:56:26.840Z,16.60
2023-03-06T19:58:55.402Z,13.00
2023-03-06T20:03:59.467Z,16.00
2023-03-06T20:06:31.205Z,21.20
2023-03-06T20:09:01.420Z,13.10
2023-03-06T20:11:30.253Z,14.20
2023-03-06T20:16:29.227Z,15.00
2023-03-06T20:19:00.153Z,10.00
2023-03-06T20:21:30.699Z,11.80
2023-03-06T20:23:59.493Z,16.80
2023-03-06T20:28:57.391Z,13.40
2023-03-06T20:31:28.582Z,13.70
2023-03-06T20:33:59.290Z,11.10
2023-03-06T20:36:36.378Z,13.10
2023-03-06T20:39:07.547Z,12.70
2023-03-06T20:41:35.999Z,17.10
2023-03-06T20:44:06.990Z,13.00
2023-03-06T20:46:36.236Z,14.80
2023-03-06T20:49:05.059Z,13.90
2023-03-06T20:54:05.486Z,11.70
2023-03-06T20:56:35.620Z,12.20
2023-03-06T20:59:04.021Z,18.50
2023-03-06T21:01:38.521Z,15.50
2023-03-06T21:04:11.311Z,13.70
2023-03-06T21:06:40.409Z,18.30
2023-03-06T21:09:08.589Z,12.20
2023-03-06T21:11:36.768Z,14.40
2023-03-06T21:14:05.476Z,18.10
2023-03-06T21:16:34.022Z,12.30
2023-03-06T21:19:02.636Z,11.20
2023-03-06T21:21:32.998Z,13.70
2023-03-06T21:24:02.500Z,16.40
2023-03-06T21:26:33.965Z,17.50
2023-03-06T21:29:03.160Z,12.70
2023-03-06T21:31:33.570Z,16.10
2023-03-06T21:34:04.611Z,14.30
2023-03-06T21:36:34.083Z,7.70
2023-03-06T21:39:03.946Z,17.70
2023-03-06T21:41:32.931Z,20.30
2023-03-06T21:44:04.137Z,12.90
2023-03-06T21:46:32.821Z,12.60
2023-03-06T21:49:03.958Z,8.90
2023-03-06T21:51:32.501Z,11.20
2023-03-06T21:54:02.224Z,9.30
2023-03-06T21:56:30.425Z,10.30
2023-03-06T21:58:58.880Z,8.30
2023-03-06T22:01:29.050Z,10.00
2023-03-06T22:03:58.390Z,9.00
2023-03-06T22:06:28.472Z,9.40
2023-03-06T22:08:58.999Z,12.20
2023-03-06T22:11:31.581Z,10.20
2023-03-06T22:14:00.056Z,8.90
2023-03-06T22:16:28.686Z,9.50
2023-03-06T22:18:57.737Z,5.80
2023-03-06T22:23:59.745Z,6.20
2023-03-06T22:26:29.303Z,9.10
2023-03-06T22:28:57.502Z,10.20
2023-03-06T22:31:28.594Z,13.90
2023-03-06T22:33:59.819Z,17.70
2023-03-06T22:36:32.731Z,14.50
2023-03-06T22:39:02.549Z,15.40
2023-03-06T22:41:31.410Z,14.40
2023-03-06T22:44:02.350Z,19.30
2023-03-06T22:46:31.896Z,17.20
2023-03-06T22:49:00.767Z,11.30
2023-03-06T22:53:58.326Z,11.50
2023-03-06T22:56:26.498Z,15.50
2023-03-06T22:58:54.556Z,13.80
2023-03-06T23:01:27.764Z,14.60
2023-03-06T23:04:00.919Z,16.10
2023-03-06T23:06:36.537Z,19.00
2023-03-06T23:09:17.332Z,14.90
2023-03-06T23:12:04.645Z,11.80
2023-03-06T23:14:51.939Z,14.40
2023-03-06T23:17:38.656Z,13.50
2023-03-06T23:20:25.121Z,20.20
2023-03-06T23:23:11.900Z,11.20
2023-03-06T23:25:43.910Z,10.90
2023-03-06T23:28:12.432Z,9.20
2023-03-06T23:30:41.981Z,9.70
2023-03-06T23:33:10.611Z,9.60
2023-03-06T23:35:39.307Z,13.50
2023-03-06T23:40:37.833Z,14.00
2023-03-06T23:43:06.288Z,9.20
2023-03-06T23:45:34.464Z,9.10
2023-03-06T23:48:02.616Z,11.80
2023-03-06T23:50:31.942Z,10.90
2023-03-06T23:53:00.019Z,10.10
2023-03-06T23:55:28.164Z,8.10
2023-03-06T23:57:56.235Z,8.80
